createdAt,value
2017-07-23T00:02:04.482Z,19.68
2017-07-23T00:04:33.542Z,19.72
2017-07-23T00:07:02.668Z,19.62
2017-07-23T00:09:31.710Z,19.60
2017-07-23T00:12:00.755Z,19.65
2017-07-23T00:14:29.843Z,19.66
2017-07-23T00:16:59.657Z,19.70
2017-07-23T00:19:29.483Z,19.73
2017-07-23T00:21:58.544Z,19.73
2017-07-23T00:24:27.591Z,19.77
2017-07-23T00:26:56.692Z,19.79
2017-07-23T00:29:25.746Z,19.85
2017-07-23T00:31:55.572Z,19.88
2017-07-23T00:34:24.639Z,19.93
2017-07-23T00:36:53.724Z,19.97
2017-07-23T00:39:22.798Z,19.99
2017-07-23T00:41:52.107Z,19.99
2017-07-23T00:44:21.184Z,20.01
2017-07-23T00:46:50.264Z,20.02
2017-07-23T00:49:19.322Z,19.99
2017-07-23T00:51:48.414Z,19.98
2017-07-23T00:54:18.228Z,20.00
2017-07-23T00:56:48.124Z,19.99
2017-07-23T00:59:17.175Z,19.96
2017-07-23T01:01:46.248Z,19.95
2017-07-23T01:04:15.553Z,19.91
2017-07-23T01:06:44.626Z,19.91
2017-07-23T01:09:13.699Z,19.92
2017-07-23T01:11:42.747Z,19.94
2017-07-23T01:14:12.032Z,19.92
2017-07-23T01:16:41.091Z,19.87
2017-07-23T01:19:10.490Z,19.84
2017-07-23T01:21:39.552Z,19.84
2017-07-23T01:24:08.619Z,19.85
2017-07-23T01:26:38.464Z,19.79
2017-07-23T01:29:07.545Z,19.79
2017-07-23T01:31:36.592Z,19.80
2017-07-23T01:34:05.664Z,19.76
2017-07-23T01:36:34.740Z,19.71
2017-07-23T01:39:03.861Z,19.69
2017-07-23T01:41:32.925Z,19.69
2017-07-23T01:44:02.011Z,19.70
2017-07-23T01:46:31.820Z,19.66
2017-07-23T01:49:00.872Z,19.69
2017-07-23T01:51:30.000Z,19.67
2017-07-23T01:53:59.825Z,19.65
2017-07-23T01:56:28.926Z,19.62
2017-07-23T01:58:57.983Z,19.55
2017-07-23T02:01:27.025Z,19.51
2017-07-23T02:03:56.094Z,19.46
2017-07-23T02:06:25.890Z,19.42
2017-07-23T02:08:55.720Z,19.39
2017-07-23T02:11:24.777Z,19.37
2017-07-23T02:13:53.829Z,19.34
2017-07-23T02:16:22.864Z,19.38
2017-07-23T02:18:51.962Z,19.37
2017-07-23T02:21:21.053Z,19.36
2017-07-23T02:23:50.084Z,19.37
2017-07-23T02:26:19.172Z,19.33
2017-07-23T02:28:48.987Z,19.33
2017-07-23T02:31:18.815Z,19.29
2017-07-23T02:33:47.875Z,19.23
2017-07-23T02:36:16.945Z,19.23
2017-07-23T02:38:45.996Z,19.17
2017-07-23T02:41:15.084Z,19.14
2017-07-23T02:43:45.109Z,19.12
2017-07-23T02:46:14.188Z,19.08
2017-07-23T02:48:44.043Z,19.03
2017-07-23T02:51:13.139Z,19.02
2017-07-23T02:53:42.172Z,19.00
2017-07-23T02:56:11.265Z,18.99
2017-07-23T02:58:41.089Z,18.98
2017-07-23T03:01:10.924Z,18.99
2017-07-23T03:03:39.958Z,18.99
2017-07-23T03:06:09.040Z,18.95
2017-07-23T03:08:38.124Z,18.89
2017-07-23T03:11:07.185Z,18.85
2017-07-23T03:13:36.240Z,18.81
2017-07-23T03:16:05.300Z,18.78
2017-07-23T03:18:34.367Z,18.72
2017-07-23T03:21:03.429Z,18.68
2017-07-23T03:23:32.511Z,18.65
2017-07-23T03:26:01.604Z,18.66
2017-07-23T03:28:30.654Z,18.69
2017-07-23T03:31:00.466Z,18.71
2017-07-23T03:33:30.539Z,18.72
2017-07-23T03:35:59.582Z,18.73
2017-07-23T03:38:28.653Z,18.74
2017-07-23T03:40:57.720Z,18.73
2017-07-23T03:43:26.804Z,18.72
2017-07-23T03:45:55.840Z,18.71
2017-07-23T03:48:25.655Z,18.70
2017-07-23T03:50:54.720Z,18.70
2017-07-23T03:53:23.784Z,18.59
2017-07-23T03:55:52.832Z,18.38
2017-07-23T03:58:21.906Z,18.25
2017-07-23T04:00:50.938Z,18.21
2017-07-23T04:03:20.768Z,18.20
2017-07-23T04:05:49.845Z,18.15
2017-07-23T04:08:19.664Z,18.04
2017-07-23T04:10:49.509Z,17.92
2017-07-23T04:13:18.574Z,17.92
2017-07-23T04:15:48.403Z,17.91
2017-07-23T04:18:17.456Z,17.83
2017-07-23T04:20:46.504Z,17.80
2017-07-23T04:23:15.568Z,17.78
2017-07-23T04:25:45.389Z,17.76
2017-07-23T04:28:14.507Z,17.73
2017-07-23T04:30:43.572Z,17.76
2017-07-23T04:33:13.403Z,17.80
2017-07-23T04:35:42.439Z,17.82
2017-07-23T04:38:11.567Z,17.79
2017-07-23T04:40:41.366Z,17.76
2017-07-23T04:43:10.432Z,17.76
2017-07-23T04:45:39.492Z,17.72
2017-07-23T04:48:08.805Z,17.65
2017-07-23T04:50:37.852Z,17.59
2017-07-23T04:53:06.934Z,17.58
2017-07-23T04:55:36.012Z,17.60
2017-07-23T04:58:05.055Z,17.62
2017-07-23T05:00:34.944Z,17.66
2017-07-23T05:03:03.983Z,17.71
2017-07-23T05:05:33.043Z,17.67
2017-07-23T05:08:02.139Z,17.64
2017-07-23T05:10:31.190Z,17.66
2017-07-23T05:13:00.264Z,17.67
2017-07-23T05:15:30.213Z,17.65
2017-07-23T05:17:59.565Z,17.66
2017-07-23T05:20:28.641Z,17.69
2017-07-23T05:22:57.672Z,17.66
2017-07-23T05:25:26.838Z,17.64
2017-07-23T05:27:55.915Z,17.68
2017-07-23T05:30:25.000Z,17.66
2017-07-23T05:32:54.055Z,17.70
2017-07-23T05:35:23.153Z,17.74
2017-07-23T05:37:52.231Z,17.79
2017-07-23T05:40:22.035Z,17.77
2017-07-23T05:42:51.872Z,17.79
2017-07-23T05:45:20.965Z,17.78
2017-07-23T05:47:50.031Z,17.79
2017-07-23T05:50:19.908Z,17.80
2017-07-23T05:52:48.990Z,17.83
2017-07-23T05:55:18.069Z,17.79
2017-07-23T05:57:48.128Z,17.81
2017-07-23T06:00:17.243Z,17.89
2017-07-23T06:02:46.312Z,17.86
2017-07-23T06:05:15.455Z,17.85
2017-07-23T06:07:44.476Z,17.85
2017-07-23T06:10:13.565Z,17.90
2017-07-23T06:12:42.888Z,17.87
2017-07-23T06:15:11.953Z,17.84
2017-07-23T06:17:41.018Z,17.87
2017-07-23T06:20:10.876Z,17.87
2017-07-23T06:22:39.956Z,17.90
2017-07-23T06:25:09.808Z,17.94
2017-07-23T06:27:38.861Z,18.00
2017-07-23T06:30:08.211Z,18.02
2017-07-23T06:32:37.282Z,18.01
2017-07-23T06:35:06.363Z,18.08
2017-07-23T06:37:35.406Z,18.14
2017-07-23T06:40:04.512Z,18.24
2017-07-23T06:42:33.612Z,18.33
2017-07-23T06:45:03.439Z,18.44
2017-07-23T06:47:32.484Z,18.54
2017-07-23T06:50:01.720Z,18.60
2017-07-23T06:52:30.976Z,18.67
2017-07-23T06:55:00.064Z,18.79
2017-07-23T06:57:34.112Z,18.88
2017-07-23T07:00:04.192Z,18.89
2017-07-23T07:02:33.245Z,18.84
2017-07-23T07:05:04.019Z,18.91
2017-07-23T07:07:33.087Z,18.98
2017-07-23T07:10:02.420Z,18.96
2017-07-23T07:12:31.469Z,18.99
2017-07-23T07:15:00.520Z,19.01
2017-07-23T07:17:29.597Z,19.00
2017-07-23T07:19:58.654Z,18.80
2017-07-23T07:22:28.525Z,18.58
2017-07-23T07:24:57.558Z,18.49
2017-07-23T07:27:26.665Z,18.50
2017-07-23T07:29:56.476Z,18.60
2017-07-23T07:32:26.337Z,18.65
2017-07-23T07:34:55.389Z,18.69
2017-07-23T07:37:24.455Z,18.61
2017-07-23T07:39:53.539Z,18.62
2017-07-23T07:42:22.611Z,18.62
2017-07-23T07:44:56.791Z,18.55
2017-07-23T07:47:25.850Z,18.50
2017-07-23T07:49:54.927Z,18.47
2017-07-23T07:52:23.959Z,18.50
2017-07-23T07:54:53.813Z,18.55
2017-07-23T07:57:22.851Z,18.51
2017-07-23T07:59:51.920Z,18.52
2017-07-23T08:02:21.265Z,18.54
2017-07-23T08:04:51.100Z,18.62
2017-07-23T08:07:21.669Z,18.65
2017-07-23T08:09:50.734Z,18.65
2017-07-23T08:12:20.055Z,18.67
2017-07-23T08:14:49.141Z,18.69
2017-07-23T08:17:18.253Z,18.78
2017-07-23T08:19:47.309Z,18.77
2017-07-23T08:22:16.405Z,18.75
2017-07-23T08:24:46.238Z,18.73
2017-07-23T08:27:15.276Z,18.75
2017-07-23T08:29:44.371Z,18.76
2017-07-23T08:32:13.418Z,18.88
2017-07-23T08:34:42.508Z,19.11
2017-07-23T08:37:11.626Z,19.40
2017-07-23T08:39:40.710Z,19.65
2017-07-23T08:42:09.840Z,19.64
2017-07-23T08:44:38.935Z,19.45
2017-07-23T08:47:08.004Z,19.25
2017-07-23T08:49:37.113Z,19.19
2017-07-23T08:52:06.345Z,19.24
2017-07-23T08:54:36.195Z,19.21
2017-07-23T08:57:05.248Z,19.30
2017-07-23T08:59:34.314Z,19.34
2017-07-23T09:02:03.477Z,19.30
2017-07-23T09:04:33.038Z,19.20
2017-07-23T09:07:02.097Z,19.23
2017-07-23T09:09:31.415Z,19.29
2017-07-23T09:12:00.654Z,19.35
2017-07-23T09:14:29.718Z,19.27
2017-07-23T09:16:58.949Z,19.19
2017-07-23T09:19:28.795Z,19.18
2017-07-23T09:21:57.873Z,19.26
2017-07-23T09:24:26.940Z,19.44
2017-07-23T09:26:56.089Z,19.57
2017-07-23T09:29:25.158Z,19.81
2017-07-23T09:31:54.998Z,20.14
2017-07-23T09:34:24.336Z,20.26
2017-07-23T09:36:53.413Z,20.27
2017-07-23T09:39:22.463Z,20.18
2017-07-23T09:41:51.639Z,20.12
2017-07-23T09:44:20.720Z,20.03
2017-07-23T09:46:50.685Z,20.04
2017-07-23T09:49:20.532Z,20.14
2017-07-23T09:51:49.581Z,20.38
2017-07-23T09:54:19.663Z,20.66
2017-07-23T09:56:48.721Z,20.79
2017-07-23T09:59:17.836Z,20.87
2017-07-23T10:01:46.893Z,20.96
2017-07-23T10:04:16.005Z,21.03
2017-07-23T10:06:45.058Z,20.95
2017-07-23T10:09:14.392Z,21.06
2017-07-23T10:11:43.726Z,21.35
2017-07-23T10:14:12.856Z,21.58
2017-07-23T10:16:41.916Z,21.80
2017-07-23T10:19:11.847Z,22.04
2017-07-23T10:21:40.949Z,22.29
2017-07-23T10:24:10.333Z,22.43
2017-07-23T10:26:39.440Z,22.63
2017-07-23T10:29:08.497Z,22.66
2017-07-23T10:31:37.535Z,22.69
2017-07-23T10:34:06.632Z,22.71
2017-07-23T10:36:35.713Z,22.56
2017-07-23T10:39:04.781Z,22.60
2017-07-23T10:41:33.842Z,22.70
2017-07-23T10:44:02.953Z,22.64
2017-07-23T10:46:32.019Z,22.57
2017-07-23T10:49:01.861Z,22.39
2017-07-23T10:51:30.933Z,22.25
2017-07-23T10:53:59.982Z,22.18
2017-07-23T10:56:29.033Z,22.13
2017-07-23T10:58:58.109Z,22.09
2017-07-23T11:01:27.946Z,22.11
2017-07-23T11:03:57.232Z,22.19
2017-07-23T11:06:26.584Z,22.26
2017-07-23T11:08:55.644Z,22.30
2017-07-23T11:11:24.713Z,22.24
2017-07-23T11:13:53.761Z,22.15
2017-07-23T11:16:22.813Z,22.09
2017-07-23T11:18:52.663Z,21.97
2017-07-23T11:21:21.722Z,21.77
2017-07-23T11:23:51.594Z,21.68
2017-07-23T11:26:20.665Z,21.65
2017-07-23T11:28:49.941Z,21.48
2017-07-23T11:31:18.979Z,21.33
2017-07-23T11:33:48.072Z,21.30
2017-07-23T11:36:17.112Z,21.28
2017-07-23T11:38:46.925Z,21.17
2017-07-23T11:41:16.010Z,21.14
2017-07-23T11:43:45.060Z,21.18
2017-07-23T11:46:14.165Z,21.25
2017-07-23T11:48:43.226Z,21.20
2017-07-23T11:51:12.313Z,21.08
2017-07-23T11:53:41.372Z,21.08
2017-07-23T11:56:10.564Z,21.16
2017-07-23T11:58:39.632Z,21.39
2017-07-23T12:01:08.692Z,21.65
2017-07-23T12:03:37.792Z,21.92
2017-07-23T12:06:06.844Z,22.10
2017-07-23T12:08:35.908Z,22.02
2017-07-23T12:11:04.993Z,21.97
2017-07-23T12:13:34.064Z,22.02
2017-07-23T12:16:03.898Z,22.15
2017-07-23T12:18:32.981Z,22.35
2017-07-23T12:21:02.040Z,22.49
2017-07-23T12:23:31.364Z,22.48
2017-07-23T12:26:00.405Z,22.45
2017-07-23T12:28:29.483Z,22.43
2017-07-23T12:30:58.561Z,22.44
2017-07-23T12:33:27.608Z,22.44
2017-07-23T12:35:56.695Z,22.51
2017-07-23T12:38:25.780Z,22.56
2017-07-23T12:40:54.861Z,22.54
2017-07-23T12:43:25.246Z,22.45
2017-07-23T12:45:56.107Z,22.43
2017-07-23T12:48:25.208Z,22.30
2017-07-23T12:50:54.288Z,22.12
2017-07-23T12:53:23.335Z,22.03
2017-07-23T12:55:52.407Z,22.07
2017-07-23T12:58:21.485Z,22.13
2017-07-23T13:00:50.536Z,22.11
2017-07-23T13:03:19.599Z,22.04
2017-07-23T13:05:48.900Z,21.97
2017-07-23T13:08:18.009Z,21.95
2017-07-23T13:10:47.044Z,21.88
2017-07-23T13:13:16.180Z,21.82
2017-07-23T13:15:45.237Z,21.81
2017-07-23T13:18:14.300Z,21.86
2017-07-23T13:20:44.248Z,21.91
2017-07-23T13:23:13.301Z,21.84
2017-07-23T13:25:42.399Z,21.83
2017-07-23T13:28:11.826Z,21.86
2017-07-23T13:30:40.872Z,21.94
2017-07-23T13:33:09.951Z,22.06
2017-07-23T13:35:39.300Z,22.11
2017-07-23T13:38:08.369Z,22.03
2017-07-23T13:40:37.452Z,21.99
2017-07-23T13:43:06.536Z,21.96
2017-07-23T13:45:36.317Z,21.86
2017-07-23T13:48:06.175Z,21.83
2017-07-23T13:50:35.253Z,21.81
2017-07-23T13:53:04.351Z,21.78
2017-07-23T13:55:33.393Z,21.73
2017-07-23T13:58:02.484Z,21.71
2017-07-23T14:00:31.551Z,21.77
2017-07-23T14:03:00.647Z,21.82
2017-07-23T14:05:29.695Z,21.83
2017-07-23T14:07:59.506Z,21.83
2017-07-23T14:10:29.350Z,21.77
2017-07-23T14:12:58.395Z,21.80
2017-07-23T14:15:27.480Z,21.80
2017-07-23T14:17:56.881Z,21.93
2017-07-23T14:20:25.965Z,21.99
2017-07-23T14:22:55.113Z,22.09
2017-07-23T14:25:25.028Z,22.18
2017-07-23T14:27:54.872Z,22.23
2017-07-23T14:30:23.932Z,22.24
2017-07-23T14:32:53.793Z,22.27
2017-07-23T14:35:22.869Z,22.34
2017-07-23T14:37:51.945Z,22.36
2017-07-23T14:40:21.771Z,22.29
2017-07-23T14:42:50.840Z,22.29
2017-07-23T14:45:20.726Z,22.36
2017-07-23T14:47:49.795Z,22.43
2017-07-23T14:50:19.251Z,22.52
2017-07-23T14:52:48.325Z,22.62
2017-07-23T14:55:17.450Z,22.71
2017-07-23T14:57:46.568Z,22.76
2017-07-23T15:00:15.701Z,22.76
2017-07-23T15:02:44.787Z,22.82
2017-07-23T15:05:13.914Z,22.94
2017-07-23T15:07:42.963Z,22.98
2017-07-23T15:10:12.136Z,22.91
2017-07-23T15:12:41.182Z,22.73
2017-07-23T15:15:10.307Z,22.57
2017-07-23T15:17:40.382Z,22.30
2017-07-23T15:20:09.657Z,22.09
2017-07-23T15:22:38.714Z,21.87
2017-07-23T15:25:08.569Z,21.53
2017-07-23T15:27:37.644Z,21.07
2017-07-23T15:30:07.801Z,20.69
2017-07-23T15:32:36.886Z,20.47
2017-07-23T15:35:05.961Z,20.21
2017-07-23T15:37:35.265Z,20.05
2017-07-23T15:40:04.377Z,19.92
2017-07-23T15:42:33.709Z,19.95
2017-07-23T15:45:02.878Z,19.95
2017-07-23T15:47:31.943Z,19.93
2017-07-23T15:50:01.001Z,19.93
2017-07-23T15:52:30.086Z,20.04
2017-07-23T15:54:59.177Z,20.16
2017-07-23T15:57:29.892Z,20.26
2017-07-23T15:59:58.992Z,20.32
2017-07-23T16:02:28.086Z,20.35
2017-07-23T16:04:57.412Z,20.38
2017-07-23T16:07:26.483Z,20.39
2017-07-23T16:09:55.591Z,20.40
2017-07-23T16:12:24.681Z,20.41
2017-07-23T16:14:53.795Z,20.46
2017-07-23T16:17:22.888Z,20.51
2017-07-23T16:19:51.974Z,20.57
2017-07-23T16:22:21.295Z,20.63
2017-07-23T16:24:50.335Z,20.69
2017-07-23T16:27:19.416Z,20.68
2017-07-23T16:29:49.245Z,20.71
2017-07-23T16:32:18.318Z,20.73
2017-07-23T16:34:48.133Z,20.69
2017-07-23T16:37:17.986Z,20.71
2017-07-23T16:39:47.076Z,20.71
2017-07-23T16:42:16.128Z,20.83
2017-07-23T16:44:46.008Z,20.91
2017-07-23T16:47:15.125Z,20.94
2017-07-23T16:49:45.148Z,21.00
2017-07-23T16:52:14.435Z,20.99
2017-07-23T16:54:44.297Z,21.06
2017-07-23T16:57:13.359Z,21.08
2017-07-23T16:59:43.184Z,21.10
2017-07-23T17:02:13.068Z,21.17
2017-07-23T17:04:42.135Z,21.18
2017-07-23T17:07:11.256Z,21.21
2017-07-23T17:09:40.695Z,21.19
2017-07-23T17:12:09.753Z,21.25
2017-07-23T17:14:38.824Z,21.22
2017-07-23T17:17:07.897Z,21.25
2017-07-23T17:19:36.965Z,21.28
2017-07-23T17:22:07.152Z,21.26
2017-07-23T17:24:36.209Z,21.23
2017-07-23T17:27:05.285Z,21.21
2017-07-23T17:29:34.384Z,21.19
2017-07-23T17:32:04.211Z,21.17
2017-07-23T17:34:33.260Z,21.13
2017-07-23T17:37:02.324Z,21.09
2017-07-23T17:39:31.424Z,21.07
2017-07-23T17:42:00.504Z,21.01
2017-07-23T17:44:29.588Z,20.95
2017-07-23T17:46:58.650Z,20.87
2017-07-23T17:49:27.747Z,20.79
2017-07-23T17:51:56.822Z,20.77
2017-07-23T17:54:25.883Z,20.74
2017-07-23T17:56:54.960Z,20.71
2017-07-23T17:59:24.797Z,20.72
2017-07-23T18:01:55.171Z,20.66
2017-07-23T18:04:25.008Z,20.63
2017-07-23T18:06:54.045Z,20.59
2017-07-23T18:09:23.145Z,20.50
2017-07-23T18:11:52.202Z,20.48
2017-07-23T18:14:22.057Z,20.47
2017-07-23T18:16:51.125Z,20.42
2017-07-23T18:19:20.197Z,20.39
2017-07-23T18:21:49.251Z,20.36
2017-07-23T18:24:18.305Z,20.33
2017-07-23T18:26:47.431Z,20.28
2017-07-23T18:29:16.514Z,20.27
2017-07-23T18:31:45.576Z,20.20
2017-07-23T18:34:14.648Z,20.17
2017-07-23T18:36:45.096Z,20.12
2017-07-23T18:39:14.173Z,20.01
2017-07-23T18:41:44.023Z,19.89
2017-07-23T18:44:13.093Z,19.77
2017-07-23T18:46:42.184Z,19.74
2017-07-23T18:49:12.287Z,19.65
2017-07-23T18:51:41.365Z,19.56
2017-07-23T18:54:10.435Z,19.53
2017-07-23T18:56:39.499Z,19.53
2017-07-23T18:59:08.620Z,19.44
2017-07-23T19:01:37.672Z,19.36
2017-07-23T19:04:06.793Z,19.27
2017-07-23T19:06:36.117Z,19.23
2017-07-23T19:09:05.167Z,19.20
2017-07-23T19:11:34.297Z,19.17
2017-07-23T19:14:04.075Z,19.15
2017-07-23T19:16:33.895Z,19.14
2017-07-23T19:19:03.280Z,19.09
2017-07-23T19:21:32.309Z,19.07
2017-07-23T19:24:01.422Z,19.03
2017-07-23T19:26:30.488Z,19.02
2017-07-23T19:28:59.599Z,19.03
2017-07-23T19:31:28.660Z,19.04
2017-07-23T19:33:58.480Z,19.04
2017-07-23T19:36:27.562Z,19.04
2017-07-23T19:38:56.633Z,18.94
2017-07-23T19:41:25.718Z,19.01
2017-07-23T19:43:54.795Z,19.02
2017-07-23T19:46:23.847Z,18.96
2017-07-23T19:48:53.699Z,19.01
2017-07-23T19:51:22.765Z,19.08
2017-07-23T19:53:51.868Z,19.10
2017-07-23T19:56:20.941Z,19.12
2017-07-23T19:58:50.807Z,19.16
2017-07-23T20:01:19.935Z,19.07
2017-07-23T20:03:49.028Z,19.07
2017-07-23T20:06:18.079Z,19.04
2017-07-23T20:08:47.160Z,19.01
2017-07-23T20:11:16.218Z,19.04
2017-07-23T20:13:45.298Z,19.03
2017-07-23T20:16:15.389Z,19.01
2017-07-23T20:18:44.472Z,18.97
2017-07-23T20:21:13.824Z,18.92
2017-07-23T20:23:42.873Z,18.89
2017-07-23T20:26:11.935Z,18.90
2017-07-23T20:28:41.857Z,18.87
2017-07-23T20:31:10.972Z,18.88
2017-07-23T20:33:40.996Z,18.88
2017-07-23T20:36:10.079Z,18.88
2017-07-23T20:38:39.138Z,18.87
2017-07-23T20:41:08.243Z,18.89
2017-07-23T20:43:37.310Z,18.86
2017-07-23T20:46:06.391Z,18.84
2017-07-23T20:48:35.448Z,18.82
2017-07-23T20:51:04.571Z,18.79
2017-07-23T20:53:33.623Z,18.75
2017-07-23T20:56:03.449Z,18.68
2017-07-23T20:58:32.507Z,18.62
2017-07-23T21:01:01.562Z,18.58
2017-07-23T21:03:30.632Z,18.57
2017-07-23T21:05:59.703Z,18.53
2017-07-23T21:08:28.783Z,18.54
2017-07-23T21:10:57.892Z,18.53
2017-07-23T21:13:26.952Z,18.52
2017-07-23T21:15:56.008Z,18.53
2017-07-23T21:18:25.063Z,18.49
2017-07-23T21:20:54.145Z,18.48
2017-07-23T21:23:23.205Z,18.47
2017-07-23T21:25:52.261Z,18.47
2017-07-23T21:28:22.124Z,18.43
2017-07-23T21:30:51.193Z,18.44
2017-07-23T21:33:20.287Z,18.42
2017-07-23T21:35:50.092Z,18.38
2017-07-23T21:38:19.927Z,18.32
2017-07-23T21:40:49.000Z,18.26
2017-07-23T21:43:18.085Z,18.22
2017-07-23T21:45:47.905Z,18.25
2017-07-23T21:48:17.741Z,18.26
2017-07-23T21:50:47.534Z,18.27
2017-07-23T21:53:17.357Z,18.21
2017-07-23T21:55:46.432Z,18.23
2017-07-23T21:58:15.569Z,18.22
2017-07-23T22:00:44.667Z,18.22
2017-07-23T22:03:14.007Z,18.23
2017-07-23T22:05:43.074Z,18.19
2017-07-23T22:08:12.232Z,18.17
2017-07-23T22:10:42.021Z,18.14
2017-07-23T22:13:11.900Z,18.08
2017-07-23T22:15:40.942Z,18.08
2017-07-23T22:18:10.773Z,18.06
2017-07-23T22:20:39.850Z,18.05
2017-07-23T22:23:08.939Z,18.05
2017-07-23T22:25:38.780Z,18.01
2017-07-23T22:28:07.854Z,17.96
2017-07-23T22:30:38.065Z,17.96
2017-07-23T22:33:07.988Z,17.93
2017-07-23T22:35:37.821Z,17.96
2017-07-23T22:38:07.081Z,17.94
2017-07-23T22:40:36.129Z,17.91
2017-07-23T22:43:05.213Z,17.87
2017-07-23T22:45:34.276Z,17.87
2017-07-23T22:48:03.373Z,17.85
2017-07-23T22:50:32.452Z,17.87
2017-07-23T22:53:01.541Z,17.85
2017-07-23T22:55:30.612Z,17.84
2017-07-23T22:57:59.670Z,17.79
2017-07-23T23:00:28.748Z,17.80
2017-07-23T23:02:58.558Z,17.76
2017-07-23T23:05:27.621Z,17.76
2017-07-23T23:07:56.716Z,17.80
2017-07-23T23:10:25.792Z,17.81
2017-07-23T23:12:54.852Z,17.79
2017-07-23T23:15:24.671Z,17.82
2017-07-23T23:17:53.735Z,17.82
2017-07-23T23:20:22.796Z,17.77
2017-07-23T23:22:51.840Z,17.78
2017-07-23T23:25:20.974Z,17.82
2017-07-23T23:27:50.025Z,17.85
2017-07-23T23:30:19.063Z,17.83
2017-07-23T23:32:48.128Z,17.84
2017-07-23T23:35:17.948Z,17.85
2017-07-23T23:37:46.996Z,17.86
2017-07-23T23:40:16.069Z,17.87
2017-07-23T23:42:45.277Z,17.89
2017-07-23T23:45:14.323Z,17.91
2017-07-23T23:47:43.411Z,17.88
2017-07-23T23:50:12.459Z,17.86
2017-07-23T23:52:41.520Z,17.85
2017-07-23T23:55:10.588Z,17.83
2017-07-23T23:57:40.432Z,17.82
